Time;durP1;ratioP1;P1;durP2;ratioP2;P2;SDS_P1;SDS_P2;PMS_P1;PMS_P2;Temp;Humidity;BMP_temperature;BMP_pressure;BME280_temperature;BME280_humidity;BME280_pressure;Samples;Min_cycle;Max_cycle;Signal;HPM_P1;HPM_P2
2021/01/29 00:01:27;;;;;;;1999.90;999.90;;;7.00;99.90;;;;;;5059264;28;20302;-82
2021/01/29 00:03:52;;;;;;;1999.90;999.90;;;7.00;99.90;;;;;;5058978;28;20244;-81
2021/01/29 00:06:18;;;;;;;1999.90;999.90;;;7.10;99.90;;;;;;5058568;28;20411;-81
2021/01/29 00:08:44;;;;;;;1999.90;999.90;;;7.10;99.90;;;;;;5057787;28;20168;-81
2021/01/29 00:11:10;;;;;;;1999.90;999.90;;;7.10;99.90;;;;;;5058671;28;20192;-81
2021/01/29 00:13:35;;;;;;;1999.90;999.90;;;7.10;99.90;;;;;;5058780;28;20399;-81
2021/01/29 00:16:01;;;;;;;1999.90;999.90;;;7.00;99.90;;;;;;5058514;28;20176;-81
2021/01/29 00:18:27;;;;;;;1999.90;999.90;;;7.00;99.90;;;;;;5058186;28;20164;-81
2021/01/29 00:20:53;;;;;;;1999.90;999.90;;;7.00;99.90;;;;;;5058303;28;20176;-81
2021/01/29 00:23:19;;;;;;;1999.90;999.90;;;7.00;99.90;;;;;;5058264;28;20759;-81
2021/01/29 00:25:48;;;;;;;1999.90;999.90;;;7.00;99.90;;;;;;5057950;28;20406;-81
2021/01/29 00:28:14;;;;;;;1999.90;999.90;;;7.10;99.90;;;;;;5058076;28;20160;-81
2021/01/29 00:30:40;;;;;;;1999.90;999.90;;;7.10;99.90;;;;;;5058125;28;20734;-81
2021/01/29 00:33:09;;;;;;;1999.90;999.90;;;7.10;99.90;;;;;;5058519;28;20192;-81
2021/01/29 00:35:35;;;;;;;1999.90;999.90;;;7.20;99.90;;;;;;5058192;28;20407;-81
2021/01/29 00:38:02;;;;;;;1999.90;999.90;;;7.20;99.90;;;;;;5058068;28;20195;-81
2021/01/29 00:40:28;;;;;;;1999.90;999.90;;;7.20;99.90;;;;;;5058329;28;20176;-81
2021/01/29 00:42:54;;;;;;;1999.90;999.90;;;7.20;99.90;;;;;;5056347;28;20250;-81
2021/01/29 00:45:27;;;;;;;1999.90;999.90;;;7.20;99.90;;;;;;5057575;28;20156;-81
2021/01/29 00:47:53;;;;;;;1999.90;999.90;;;7.30;99.90;;;;;;5056790;28;20196;-81
2021/01/29 00:50:19;;;;;;;1999.90;999.90;;;7.30;99.90;;;;;;5058006;28;20234;-82
2021/01/29 00:52:45;;;;;;;1999.90;999.90;;;7.40;99.90;;;;;;5057713;28;20164;-81
2021/01/29 00:55:11;;;;;;;1999.90;999.90;;;7.40;99.90;;;;;;5056218;28;20183;-81
2021/01/29 00:57:37;;;;;;;1999.90;999.90;;;7.40;99.90;;;;;;5057097;28;20724;-81
2021/01/29 01:00:09;;;;;;;1999.90;999.90;;;7.50;99.90;;;;;;5055428;28;20176;-81
2021/01/29 01:02:35;;;;;;;1999.90;999.90;;;7.60;99.90;;;;;;5056607;28;20595;-80
2021/01/29 01:05:05;;;;;;;1999.90;999.90;;;7.60;99.90;;;;;;5056612;28;20161;-81
2021/01/29 01:07:31;;;;;;;1999.90;999.90;;;7.60;99.90;;;;;;5055581;28;20165;-81
2021/01/29 01:09:56;;;;;;;1999.90;999.90;;;7.70;99.90;;;;;;5056256;28;20169;-81
2021/01/29 01:12:23;;;;;;;1999.90;999.90;;;7.60;99.90;;;;;;5055909;28;20486;-81
2021/01/29 01:14:48;;;;;;;1999.90;999.90;;;7.70;99.90;;;;;;5057187;28;20490;-81
2021/01/29 01:17:15;;;;;;;1999.90;999.90;;;7.70;99.90;;;;;;5056564;28;20226;-81
2021/01/29 01:19:41;;;;;;;1999.90;999.90;;;7.80;99.90;;;;;;5056633;28;20192;-81
2021/01/29 01:22:07;;;;;;;1999.90;999.90;;;7.80;99.90;;;;;;5057072;28;20677;-81
2021/01/29 01:24:40;;;;;;;1999.90;999.90;;;7.70;99.90;;;;;;5057420;28;20626;-81
2021/01/29 01:27:11;;;;;;;1999.90;999.90;;;7.70;99.90;;;;;;5056388;28;20161;-81
2021/01/29 01:29:36;;;;;;;1999.90;999.90;;;7.70;99.90;;;;;;5056794;28;20714;-81
2021/01/29 01:32:03;;;;;;;1999.90;999.90;;;7.60;99.90;;;;;;5056560;28;20195;-81
2021/01/29 01:34:29;;;;;;;1999.90;999.90;;;7.60;99.90;;;;;;5056741;28;20203;-81
2021/01/29 01:36:55;;;;;;;1999.90;999.90;;;7.60;99.90;;;;;;5056891;28;20161;-81
2021/01/29 01:39:21;;;;;;;1999.90;999.90;;;7.60;99.90;;;;;;5056794;28;20402;-81
2021/01/29 01:41:46;;;;;;;1999.90;999.90;;;7.60;99.90;;;;;;5056539;28;20227;-81
2021/01/29 01:44:31;;;;;;;1999.90;999.90;;;7.60;99.90;;;;;;5057083;28;20243;-81
2021/01/29 01:47:01;;;;;;;1999.90;999.90;;;7.50;99.90;;;;;;5057138;28;20164;-81
2021/01/29 01:49:27;;;;;;;1999.90;999.90;;;7.50;99.90;;;;;;5056029;28;20202;-81
2021/01/29 01:52:16;;;;;;;1999.90;999.90;;;7.50;99.90;;;;;;5057175;28;20172;-81
2021/01/29 01:54:50;;;;;;;1999.90;999.90;;;7.50;99.90;;;;;;5047341;28;20415;-81
2021/01/29 01:57:19;;;;;;;1999.90;999.90;;;7.60;99.90;;;;;;5061015;28;20168;-82
2021/01/29 02:00:00;;;;;;;1999.90;999.90;;;7.60;99.90;;;;;;5060465;28;20172;-82
2021/01/29 02:02:30;;;;;;;1999.90;999.90;;;7.60;99.90;;;;;;5060596;28;20187;-81
2021/01/29 02:04:59;;;;;;;1999.90;999.90;;;7.60;99.90;;;;;;5060572;28;20203;-81
2021/01/29 02:07:42;;;;;;;1999.90;999.90;;;7.70;99.90;;;;;;5059169;28;20195;-82
2021/01/29 02:10:09;;;;;;;1999.90;999.90;;;7.60;99.90;;;;;;5057965;28;20175;-82
2021/01/29 02:12:35;;;;;;;1999.90;999.90;;;7.70;99.90;;;;;;5059116;28;20243;-82
2021/01/29 02:15:12;;;;;;;1999.90;999.90;;;7.70;99.90;;;;;;5059160;28;20192;-83
2021/01/29 02:18:23;;;;;;;1999.90;999.90;;;7.70;99.90;;;;;;5057888;28;20210;-83
2021/01/29 02:21:46;;;;;;;1999.90;999.90;;;7.60;99.90;;;;;;5035985;28;20647;-83
2021/01/29 02:24:53;;;;;;;1999.90;999.90;;;7.60;99.90;;;;;;4998876;28;20178;-83
2021/01/29 02:27:34;;;;;;;1999.90;999.90;;;7.60;99.90;;;;;;5000107;28;20657;-83
2021/01/29 02:30:19;;;;;;;1999.90;999.90;;;7.60;99.90;;;;;;5048609;28;20177;-83
2021/01/29 02:33:05;;;;;;;1999.90;999.90;;;7.50;99.90;;;;;;5061592;28;20156;-83
2021/01/29 02:36:03;;;;;;;1999.90;999.90;;;7.50;99.90;;;;;;5061425;28;20145;-83
2021/01/29 02:39:03;;;;;;;1999.90;999.90;;;7.50;99.90;;;;;;5061491;28;20562;-83
2021/01/29 02:41:54;;;;;;;1999.90;999.90;;;7.50;99.90;;;;;;5046668;28;20203;-83
2021/01/29 02:44:33;;;;;;;1999.90;999.90;;;7.50;99.90;;;;;;5059695;28;20643;-83
2021/01/29 02:47:25;;;;;;;1999.90;999.90;;;7.50;99.90;;;;;;5061333;28;20149;-83
2021/01/29 02:49:59;;;;;;;1999.90;999.90;;;7.50;99.90;;;;;;5060226;28;20176;-83
2021/01/29 02:56:49;;;;;;;1999.90;999.90;;;7.50;99.90;;;;;;4999287;28;20162;-83
2021/01/29 02:59:55;;;;;;;1999.90;999.90;;;7.50;99.90;;;;;;4999652;28;20634;-83
2021/01/29 03:03:11;;;;;;;1999.90;999.90;;;7.50;99.90;;;;;;4921648;29;20672;-83
2021/01/29 03:06:27;;;;;;;1999.90;999.90;;;7.50;99.90;;;;;;4921794;29;20260;-83
2021/01/29 03:09:48;;;;;;;1999.90;999.90;;;7.50;99.90;;;;;;4922939;29;20169;-83
2021/01/29 03:13:19;;;;;;;1999.90;999.90;;;7.50;99.90;;;;;;4999577;28;20162;-83
2021/01/29 03:16:07;;;;;;;1999.90;999.90;;;7.60;99.90;;;;;;4964399;28;20190;-83
2021/01/29 03:19:19;;;;;;;1999.90;999.90;;;7.60;99.90;;;;;;5060403;28;20187;-82
2021/01/29 03:22:02;;;;;;;1999.90;999.90;;;7.60;99.90;;;;;;5059593;28;20234;-83
2021/01/29 03:24:46;;;;;;;1999.90;999.90;;;7.60;99.90;;;;;;5060209;28;20251;-82
2021/01/29 03:27:24;;;;;;;1999.90;999.90;;;7.60;99.90;;;;;;5060100;28;20159;-82
2021/01/29 03:29:57;;;;;;;1999.90;999.90;;;7.60;99.90;;;;;;5058615;28;20210;-82
2021/01/29 03:32:25;;;;;;;1999.90;999.90;;;7.60;99.90;;;;;;5058929;28;20157;-83
2021/01/29 03:35:02;;;;;;;1999.90;999.90;;;7.60;99.90;;;;;;5058878;28;20192;-82
2021/01/29 03:37:40;;;;;;;1999.90;999.90;;;7.60;99.90;;;;;;5059906;28;20156;-82
2021/01/29 03:40:06;;;;;;;1999.90;999.90;;;7.60;99.90;;;;;;5125681;22;20536;-80
2021/01/29 03:42:39;;;;;;;1999.90;999.90;;;7.60;99.90;;;;;;5060004;28;20567;-80
2021/01/29 03:45:25;;;;;;;1999.90;999.90;;;7.70;99.90;;;;;;5060209;28;20255;-80
2021/01/29 03:47:58;;;;;;;1999.90;999.90;;;7.60;99.90;;;;;;5060377;28;20153;-80
2021/01/29 03:50:33;;;;;;;1999.90;999.90;;;7.70;99.90;;;;;;5060998;28;20156;-80
2021/01/29 03:53:25;;;;;;;1999.90;999.90;;;7.70;99.90;;;;;;5059811;28;20203;-80
2021/01/29 03:56:21;;;;;;;1999.90;999.90;;;7.70;99.90;;;;;;5060031;28;20187;-78
2021/01/29 03:59:18;;;;;;;1999.90;999.90;;;7.70;99.90;;;;;;5016050;28;20185;-80
2021/01/29 04:02:00;;;;;;;1999.90;999.90;;;7.70;99.90;;;;;;5059776;28;20176;-80
2021/01/29 04:04:57;;;;;;;1999.90;999.90;;;7.70;99.90;;;;;;5060030;28;20168;-80
2021/01/29 04:07:35;;;;;;;1999.90;999.90;;;7.70;99.90;;;;;;5052976;28;20172;-80
2021/01/29 04:10:09;;;;;;;1999.90;999.90;;;7.70;99.90;;;;;;5042598;28;20161;-80
2021/01/29 04:13:10;;;;;;;1999.90;999.90;;;7.70;99.90;;;;;;5059902;28;20159;-80
2021/01/29 04:15:42;;;;;;;1999.90;999.90;;;7.70;99.90;;;;;;5042118;28;20272;-80
2021/01/29 04:18:19;;;;;;;1999.90;999.90;;;7.70;99.90;;;;;;5041003;28;20161;-80
2021/01/29 04:20:50;;;;;;;1999.90;999.90;;;7.70;99.90;;;;;;5060533;28;20523;-80
2021/01/29 04:23:31;;;;;;;1999.90;999.90;;;7.80;99.90;;;;;;5041417;28;20196;-80
2021/01/29 04:26:03;;;;;;;1999.90;999.90;;;7.80;99.90;;;;;;5041770;28;20164;-80
2021/01/29 04:28:32;;;;;;;1999.90;999.90;;;7.80;99.90;;;;;;5042027;28;20218;-80
2021/01/29 04:31:04;;;;;;;1999.90;999.90;;;7.80;99.90;;;;;;5059552;28;20585;-80
2021/01/29 04:33:39;;;;;;;1999.90;999.90;;;7.80;99.90;;;;;;5059865;28;20164;-80
2021/01/29 04:36:08;;;;;;;1999.90;999.90;;;7.90;99.90;;;;;;5060233;28;20152;-80
2021/01/29 04:38:40;;;;;;;1999.90;999.90;;;7.80;99.90;;;;;;5041911;28;20164;-80
2021/01/29 04:41:23;;;;;;;1999.90;999.90;;;7.90;99.90;;;;;;5041598;28;20190;-80
2021/01/29 04:44:06;;;;;;;1999.90;999.90;;;7.90;99.90;;;;;;5060034;28;20157;-80
2021/01/29 04:46:39;;;;;;;1999.90;999.90;;;7.90;99.90;;;;;;5059586;28;20161;-80
2021/01/29 04:49:43;;;;;;;1999.90;999.90;;;8.00;99.90;;;;;;5059993;28;20160;-79
2021/01/29 04:52:42;;;;;;;1999.90;999.90;;;8.00;99.90;;;;;;4959443;29;20318;-80
2021/01/29 04:55:45;;;;;;;1999.90;999.90;;;8.00;99.90;;;;;;4959795;29;20160;-80
2021/01/29 04:58:39;;;;;;;1999.90;999.90;;;8.10;99.90;;;;;;5053811;28;20176;-80
2021/01/29 05:01:23;;;;;;;1999.90;999.90;;;8.10;99.90;;;;;;5059274;28;20159;-80
2021/01/29 05:04:10;;;;;;;1999.90;999.90;;;8.00;99.90;;;;;;5041458;28;20168;-80
2021/01/29 05:07:10;;;;;;;1999.90;999.90;;;8.00;99.90;;;;;;5041165;28;20157;-80
2021/01/29 05:10:01;;;;;;;1999.90;999.90;;;8.10;99.90;;;;;;5059309;28;20157;-80
2021/01/29 05:12:36;;;;;;;1999.90;999.90;;;8.10;99.90;;;;;;5045883;28;20188;-80
2021/01/29 05:15:32;;;;;;;1999.90;999.90;;;8.10;99.90;;;;;;5041209;28;20658;-80
2021/01/29 05:18:31;;;;;;;1999.90;999.90;;;8.10;99.90;;;;;;5058434;28;20198;-80
2021/01/29 05:21:21;;;;;;;1999.90;999.90;;;8.10;99.90;;;;;;5041082;28;20562;-80
2021/01/29 05:24:02;;;;;;;1999.90;999.90;;;8.10;99.90;;;;;;5058484;28;20180;-80
2021/01/29 05:26:45;;;;;;;1999.90;999.90;;;8.20;99.90;;;;;;5057949;28;20520;-80
2021/01/29 05:29:26;;;;;;;1999.90;999.90;;;8.20;99.90;;;;;;5040319;28;20172;-80
2021/01/29 05:32:09;;;;;;;1999.90;999.90;;;8.10;99.90;;;;;;5058515;28;20159;-80
2021/01/29 05:34:46;;;;;;;1999.90;999.90;;;8.20;99.90;;;;;;5058731;28;20235;-80
2021/01/29 05:37:40;;;;;;;1999.90;999.90;;;8.10;99.90;;;;;;5041067;28;20168;-80
2021/01/29 05:40:27;;;;;;;1999.90;999.90;;;8.20;99.90;;;;;;5058490;28;20164;-80
2021/01/29 05:43:16;;;;;;;1999.90;999.90;;;8.20;99.90;;;;;;5040450;28;20297;-80
2021/01/29 05:46:05;;;;;;;1999.90;999.90;;;8.30;99.90;;;;;;5059628;28;20548;-80
2021/01/29 05:48:41;;;;;;;1999.90;999.90;;;8.50;99.90;;;;;;5058636;28;20153;-80
2021/01/29 05:51:27;;;;;;;1999.90;999.90;;;8.60;99.90;;;;;;5059470;28;20515;-81
2021/01/29 05:54:10;;;;;;;1999.90;999.90;;;8.70;99.90;;;;;;5059410;28;20152;-80
2021/01/29 05:56:48;;;;;;;1999.90;999.90;;;8.80;99.90;;;;;;5041573;28;20157;-80
2021/01/29 05:59:14;;;;;;;1999.90;999.90;;;8.80;99.90;;;;;;5041493;28;20160;-80
2021/01/29 06:02:04;;;;;;;1999.90;999.90;;;8.90;99.90;;;;;;5058884;28;20218;-80
2021/01/29 06:04:41;;;;;;;1999.90;999.90;;;9.00;99.90;;;;;;5041289;28;20183;-81
2021/01/29 06:07:10;;;;;;;1999.90;999.90;;;9.10;99.90;;;;;;5059364;28;20153;-80
2021/01/29 06:10:13;;;;;;;1999.90;999.90;;;9.20;99.90;;;;;;5041975;28;20171;-80
2021/01/29 06:13:10;;;;;;;1999.90;999.90;;;9.20;99.90;;;;;;5059408;28;20175;-80
2021/01/29 06:16:09;;;;;;;1999.90;999.90;;;9.30;99.90;;;;;;5042237;28;20168;-81
2021/01/29 06:18:49;;;;;;;1999.90;999.90;;;9.30;99.90;;;;;;5059118;28;20188;-81
2021/01/29 06:21:52;;;;;;;1999.90;999.90;;;9.40;99.90;;;;;;5059127;28;20156;-81
2021/01/29 06:24:36;;;;;;;1999.90;999.90;;;9.40;99.90;;;;;;5058825;28;20658;-80
2021/01/29 06:27:30;;;;;;;1999.90;999.90;;;9.40;99.90;;;;;;5058702;28;20160;-80
2021/01/29 06:30:49;;;;;;;1999.90;999.90;;;9.40;99.90;;;;;;5041537;28;20247;-81
2021/01/29 06:33:30;;;;;;;1999.90;999.90;;;9.40;99.90;;;;;;4959032;29;20160;-80
2021/01/29 06:36:05;;;;;;;1999.90;999.90;;;9.40;99.90;;;;;;4958945;29;20160;-80
2021/01/29 06:39:29;;;;;;;1999.90;999.90;;;9.40;99.90;;;;;;5033634;28;20180;-80
2021/01/29 06:42:13;;;;;;;1999.90;999.90;;;9.40;99.90;;;;;;4998463;28;20239;-80
2021/01/29 06:45:00;;;;;;;1999.90;999.90;;;9.40;99.90;;;;;;5062705;28;20614;-80
2021/01/29 06:47:57;;;;;;;1999.90;999.90;;;9.40;99.90;;;;;;5063262;28;20161;-81
2021/01/29 06:50:40;;;;;;;1999.90;999.90;;;9.40;99.90;;;;;;5063252;28;20271;-80
2021/01/29 06:53:44;;;;;;;1999.90;999.90;;;9.40;99.90;;;;;;5062138;28;20157;-80
2021/01/29 06:56:34;;;;;;;1999.90;999.90;;;9.40;99.90;;;;;;5062426;28;20176;-81
2021/01/29 06:59:32;;;;;;;1999.90;999.90;;;9.40;99.90;;;;;;5043395;28;20174;-80
2021/01/29 07:02:19;;;;;;;1999.90;999.90;;;9.40;99.90;;;;;;5006529;28;20200;-81
2021/01/29 07:05:24;;;;;;;1999.90;999.90;;;9.40;99.90;;;;;;5043327;28;20161;-81
2021/01/29 07:08:37;;;;;;;1999.90;999.90;;;9.40;99.90;;;;;;5061494;28;20190;-81
2021/01/29 07:11:28;;;;;;;1999.90;999.90;;;9.40;99.90;;;;;;5005970;28;20251;-80
2021/01/29 07:14:21;;;;;;;1999.90;999.90;;;9.40;99.90;;;;;;5061656;28;20161;-80
2021/01/29 07:17:24;;;;;;;1999.90;999.90;;;9.40;99.90;;;;;;5060308;28;20173;-80
2021/01/29 07:19:58;;;;;;;1999.90;999.90;;;9.40;99.90;;;;;;5060694;28;20155;-80
2021/01/29 07:23:00;;;;;;;1999.90;999.90;;;9.40;99.90;;;;;;5060265;28;20189;-80
2021/01/29 07:25:55;;;;;;;1999.90;999.90;;;9.40;99.90;;;;;;5060570;28;20161;-81
2021/01/29 07:29:15;;;;;;;1999.90;999.90;;;9.40;99.90;;;;;;5025324;28;20200;-80
2021/01/29 07:32:11;;;;;;;1999.90;999.90;;;9.40;99.90;;;;;;4959950;29;20179;-81
2021/01/29 07:35:00;;;;;;;1999.90;999.90;;;9.40;99.90;;;;;;5060180;28;20208;-81
2021/01/29 07:37:42;;;;;;;1999.90;999.90;;;9.40;99.90;;;;;;5060819;28;20580;-80
2021/01/29 07:40:26;;;;;;;1999.90;999.90;;;9.40;99.90;;;;;;5060823;28;20145;-81
2021/01/29 07:43:23;;;;;;;1999.90;999.90;;;9.30;99.90;;;;;;5042250;28;20277;-81
2021/01/29 07:46:34;;;;;;;1999.90;999.90;;;9.30;99.90;;;;;;5058684;28;20149;-80
2021/01/29 07:49:23;;;;;;;1999.90;999.90;;;9.30;99.90;;;;;;5041626;28;20677;-81
2021/01/29 07:52:19;;;;;;;1999.90;999.90;;;9.30;99.90;;;;;;5059764;28;20141;-81
2021/01/29 07:55:07;;;;;;;1999.90;999.90;;;9.20;99.90;;;;;;5042079;28;20165;-81
2021/01/29 07:57:51;;;;;;;1999.90;999.90;;;9.20;99.90;;;;;;5041583;28;20180;-80
2021/01/29 08:00:26;;;;;;;1999.90;999.90;;;9.10;99.90;;;;;;5041733;28;20180;-79
2021/01/29 08:03:38;;;;;;;1999.90;999.90;;;9.10;99.90;;;;;;5040553;28;20261;-80
2021/01/29 08:06:11;;;;;;;1999.90;999.90;;;9.20;99.90;;;;;;5041055;28;20194;-78
2021/01/29 08:08:49;;;;;;;1999.90;999.90;;;9.20;99.90;;;;;;5057740;28;20153;-78
2021/01/29 08:11:16;;;;;;;1999.90;999.90;;;9.20;99.90;;;;;;5039825;28;20175;-80
2021/01/29 08:14:03;;;;;;;1999.90;999.90;;;9.30;99.90;;;;;;5058613;28;20587;-80
2021/01/29 08:16:49;;;;;;;1999.90;999.90;;;9.30;99.90;;;;;;5059405;28;20187;-79
2021/01/29 08:19:52;;;;;;;1999.90;999.90;;;9.30;99.90;;;;;;5040579;28;20169;-81
2021/01/29 08:22:45;;;;;;;1999.90;999.90;;;9.40;99.90;;;;;;5058948;28;20192;-80
2021/01/29 08:25:30;;;;;;;1999.90;999.90;;;9.40;99.90;;;;;;5041821;28;20164;-80
2021/01/29 08:28:24;;;;;;;1999.90;999.90;;;9.40;99.90;;;;;;5059848;28;20164;-80
2021/01/29 08:31:23;;;;;;;1999.90;999.90;;;9.40;99.90;;;;;;5060408;28;20231;-80
2021/01/29 08:34:17;;;;;;;1999.90;999.90;;;9.40;99.90;;;;;;5059549;28;20157;-80
2021/01/29 08:37:03;;;;;;;1999.90;999.90;;;9.40;99.90;;;;;;5059972;28;20187;-80
2021/01/29 08:39:54;;;;;;;1999.90;999.90;;;9.40;99.90;;;;;;5060403;28;20160;-79
2021/01/29 08:42:58;;;;;;;1999.90;999.90;;;9.40;99.90;;;;;;5060622;28;20237;-80
2021/01/29 08:45:37;;;;;;;1999.90;999.90;;;9.50;99.90;;;;;;5042470;28;20214;-80
2021/01/29 08:48:29;;;;;;;1999.90;999.90;;;9.50;99.90;;;;;;5060137;28;20152;-80
2021/01/29 08:51:28;;;;;;;1999.90;999.90;;;9.50;99.90;;;;;;5059787;28;20160;-80
2021/01/29 08:54:08;;;;;;;1999.90;999.90;;;9.50;99.90;;;;;;5060403;28;20185;-80
2021/01/29 08:56:54;;;;;;;1999.90;999.90;;;9.50;99.90;;;;;;5060688;28;20176;-80
2021/01/29 08:59:26;;;;;;;1999.90;999.90;;;9.50;99.90;;;;;;5060447;28;20153;-80
2021/01/29 09:02:03;;;;;;;1999.90;999.90;;;9.50;99.90;;;;;;5059949;28;20149;-80
2021/01/29 09:04:50;;;;;;;1999.90;999.90;;;9.60;99.90;;;;;;5041500;28;20192;-80
2021/01/29 09:07:26;;;;;;;1999.90;999.90;;;9.60;99.90;;;;;;5060003;28;20149;-80
2021/01/29 09:10:04;;;;;;;1999.90;999.90;;;9.60;99.90;;;;;;5042997;28;20184;-81
2021/01/29 09:12:31;;;;;;;1999.90;999.90;;;9.70;99.90;;;;;;5061305;28;20184;-81
2021/01/29 09:15:04;;;;;;;1999.90;999.90;;;9.70;99.90;;;;;;5060856;28;20160;-81
2021/01/29 09:17:49;;;;;;;1999.90;999.90;;;9.70;99.90;;;;;;5027006;28;20187;-80
2021/01/29 09:20:26;;;;;;;1999.90;999.90;;;9.70;99.90;;;;;;5043997;28;20180;-81
2021/01/29 09:23:04;;;;;;;1999.90;999.90;;;9.70;99.90;;;;;;5061104;28;20195;-81
2021/01/29 09:25:54;;;;;;;1999.90;999.90;;;9.80;99.90;;;;;;5061623;28;20172;-82
2021/01/29 09:28:34;;;;;;;1999.90;999.90;;;9.80;99.90;;;;;;5043898;28;20689;-81
2021/01/29 09:31:09;;;;;;;1999.90;999.90;;;9.80;99.90;;;;;;5061613;28;20148;-82
2021/01/29 09:33:49;;;;;;;1999.90;999.90;;;9.80;99.90;;;;;;5043153;28;20164;-82
2021/01/29 09:36:15;;;;;;;1999.90;999.90;;;9.80;99.90;;;;;;5044069;28;20159;-81
2021/01/29 09:39:24;;;;;;;1999.90;999.90;;;9.80;99.90;;;;;;5061631;28;20160;-81
2021/01/29 09:42:14;;;;;;;1999.90;999.90;;;9.80;99.90;;;;;;5010129;28;20663;-81
2021/01/29 09:44:57;;;;;;;1999.90;999.90;;;9.80;99.90;;;;;;5045116;28;20527;-80
2021/01/29 09:47:42;;;;;;;1999.90;999.90;;;9.80;99.90;;;;;;5061020;28;20145;-81
2021/01/29 09:50:18;;;;;;;1999.90;999.90;;;9.90;99.90;;;;;;5042778;28;20163;-81
2021/01/29 09:53:05;;;;;;;1999.90;999.90;;;9.90;99.90;;;;;;5061623;28;20525;-81
2021/01/29 09:55:54;;;;;;;1999.90;999.90;;;9.90;99.90;;;;;;5061514;28;20164;-81
2021/01/29 09:58:27;;;;;;;1999.90;999.90;;;10.00;99.90;;;;;;5061466;28;20628;-82
2021/01/29 10:01:02;;;;;;;1999.90;999.90;;;10.00;99.90;;;;;;5042968;28;20252;-81
2021/01/29 10:04:01;;;;;;;1999.90;999.90;;;10.00;99.90;;;;;;5060592;28;20184;-82
2021/01/29 10:06:42;;;;;;;1999.90;999.90;;;10.10;99.90;;;;;;5060807;28;20153;-81
2021/01/29 10:09:25;;;;;;;1999.90;999.90;;;10.20;99.90;;;;;;5060187;28;20156;-81
2021/01/29 10:12:06;;;;;;;1999.90;999.90;;;10.10;99.90;;;;;;5060554;28;20152;-81
2021/01/29 10:15:08;;;;;;;1999.90;999.90;;;10.20;99.90;;;;;;5060423;28;20243;-81
2021/01/29 10:17:45;;;;;;;1999.90;999.90;;;10.20;99.90;;;;;;5062837;28;20336;-81
2021/01/29 10:20:54;;;;;;;1999.90;999.90;;;10.30;99.90;;;;;;5046226;28;20178;-81
2021/01/29 10:23:58;;;;;;;1999.90;999.90;;;10.30;99.90;;;;;;5062945;28;20200;-81
2021/01/29 10:26:47;;;;;;;1999.90;999.90;;;10.40;99.90;;;;;;5049094;28;20618;-82
2021/01/29 10:29:27;;;;;;;1999.90;999.90;;;10.40;99.90;;;;;;5064442;28;20208;-82
2021/01/29 10:31:55;;;;;;;1999.90;999.90;;;10.50;99.90;;;;;;5063406;28;20144;-81
2021/01/29 10:34:35;;;;;;;1999.90;999.90;;;10.50;99.90;;;;;;5045774;28;20165;-81
2021/01/29 10:37:22;;;;;;;1999.90;999.90;;;10.60;99.90;;;;;;5063810;28;20149;-82
2021/01/29 10:40:06;;;;;;;1999.90;999.90;;;10.60;99.90;;;;;;5063668;28;20195;-81
2021/01/29 10:42:56;;;;;;;1999.90;999.90;;;10.60;99.90;;;;;;5064068;28;20260;-81
2021/01/29 10:45:35;;;;;;;1999.90;999.90;;;10.60;99.90;;;;;;5063104;28;20180;-81
2021/01/29 10:48:26;;;;;;;1999.90;999.90;;;10.60;99.90;;;;;;5026161;28;20180;-81
2021/01/29 10:51:08;;;;;;;1999.90;999.90;;;10.70;99.90;;;;;;5045560;28;20264;-81
2021/01/29 10:53:43;;;;;;;1999.90;999.90;;;10.70;99.90;;;;;;5045131;28;20168;-82
2021/01/29 10:56:16;;;;;;;1999.90;999.90;;;10.80;99.90;;;;;;5063112;28;20234;-81
2021/01/29 10:59:19;;;;;;;1999.90;999.90;;;10.70;99.90;;;;;;5045098;28;20196;-81
2021/01/29 11:02:14;;;;;;;1999.90;999.90;;;10.80;99.90;;;;;;5044500;28;20176;-81
2021/01/29 11:04:56;;;;;;;1999.90;999.90;;;10.80;99.90;;;;;;5063005;28;20141;-82
2021/01/29 11:07:37;;;;;;;1999.90;999.90;;;10.80;99.90;;;;;;5044668;28;20523;-81
2021/01/29 11:10:17;;;;;;;1999.90;999.90;;;10.80;99.90;;;;;;5063318;28;20153;-79
2021/01/29 11:13:14;;;;;;;1999.90;999.90;;;10.80;99.90;;;;;;5045546;28;20173;-81
2021/01/29 11:16:13;;;;;;;1999.90;999.90;;;10.80;99.90;;;;;;5046011;28;20160;-82
2021/01/29 11:18:39;;;;;;;1999.90;999.90;;;10.80;99.90;;;;;;5008145;28;20234;-82
2021/01/29 11:21:08;;;;;;;1999.90;999.90;;;10.80;99.90;;;;;;5045221;28;20168;-81
2021/01/29 11:23:54;;;;;;;1999.90;999.90;;;10.90;99.90;;;;;;5044815;28;20450;-81
2021/01/29 11:26:46;;;;;;;1999.90;999.90;;;10.90;99.90;;;;;;5045130;28;20164;-81
2021/01/29 11:29:58;;;;;;;1999.90;999.90;;;10.90;99.90;;;;;;5062483;28;20163;-82
2021/01/29 11:32:44;;;;;;;1999.90;999.90;;;10.90;99.90;;;;;;5062465;28;20168;-81
2021/01/29 11:35:40;;;;;;;1999.90;999.90;;;10.80;99.90;;;;;;5044017;28;20184;-82
2021/01/29 11:38:49;;;;;;;1999.90;999.90;;;10.80;99.90;;;;;;5044126;28;20179;-81
2021/01/29 11:41:35;;;;;;;1999.90;999.90;;;10.80;99.90;;;;;;4961825;29;20191;-82
2021/01/29 11:44:09;;;;;;;1999.90;999.90;;;10.80;99.90;;;;;;4962854;29;20674;-81
2021/01/29 11:47:00;;;;;;;1999.90;999.90;;;10.60;99.90;;;;;;5014786;28;20182;-81
2021/01/29 11:49:35;;;;;;;1999.90;999.90;;;10.50;99.90;;;;;;5060306;28;20244;-81
2021/01/29 11:52:13;;;;;;;1999.90;999.90;;;10.40;99.90;;;;;;5060282;28;20215;-81
2021/01/29 11:55:08;;;;;;;1999.90;999.90;;;10.30;99.90;;;;;;5059542;28;20153;-81
2021/01/29 11:57:52;;;;;;;1999.90;999.90;;;10.20;99.90;;;;;;5060611;28;20160;-81
2021/01/29 12:00:39;;;;;;;1999.90;999.90;;;10.20;99.90;;;;;;5060207;28;20152;-81
2021/01/29 12:03:12;;;;;;;1999.90;999.90;;;10.20;99.90;;;;;;5060439;28;20184;-81
2021/01/29 12:05:59;;;;;;;1999.90;999.90;;;10.10;99.90;;;;;;5060241;28;20592;-80
2021/01/29 12:09:13;;;;;;;1999.90;999.90;;;10.20;99.90;;;;;;5060365;28;20224;-80
2021/01/29 12:12:05;;;;;;;1999.90;999.90;;;10.30;99.90;;;;;;5060787;28;20168;-81
2021/01/29 12:14:48;;;;;;;1999.90;999.90;;;10.40;99.90;;;;;;5061371;28;20149;-81
2021/01/29 12:17:37;;;;;;;1999.90;999.90;;;10.40;99.90;;;;;;5043311;28;20165;-81
2021/01/29 12:20:16;;;;;;;1999.90;999.90;;;10.60;99.90;;;;;;5043368;28;20164;-81
2021/01/29 12:22:44;;;;;;;1999.90;999.90;;;10.60;99.90;;;;;;5043200;28;20196;-80
2021/01/29 12:25:49;;;;;;;1999.90;999.90;;;10.60;99.90;;;;;;5060410;28;20165;-81
2021/01/29 12:28:43;;;;;;;1999.90;999.90;;;10.50;99.90;;;;;;5060764;28;20152;-82
2021/01/29 12:31:24;;;;;;;1999.90;999.90;;;10.50;99.90;;;;;;5060022;28;20240;-81
2021/01/29 12:33:52;;;;;;;1999.90;999.90;;;10.40;99.90;;;;;;5042648;28;20562;-80
2021/01/29 12:36:22;;;;;;;1999.90;999.90;;;10.40;99.90;;;;;;5041121;28;20176;-81
2021/01/29 12:39:04;;;;;;;1999.90;999.90;;;10.50;99.90;;;;;;5058508;28;20163;-81
2021/01/29 12:42:11;;;;;;;1999.90;999.90;;;10.40;99.90;;;;;;5057619;28;20685;-80
2021/01/29 12:45:06;;;;;;;1999.90;999.90;;;10.20;99.90;;;;;;4971832;28;20571;-81
2021/01/29 12:47:37;;;;;;;1999.90;999.90;;;10.00;99.90;;;;;;5057759;28;20566;-80
2021/01/29 12:50:36;;;;;;;1999.90;999.90;;;9.90;99.90;;;;;;5058470;28;20149;-80
2021/01/29 12:53:26;;;;;;;1999.90;999.90;;;9.80;99.90;;;;;;5058239;28;20149;-81
2021/01/29 12:56:12;;;;;;;1999.90;999.90;;;9.80;99.90;;;;;;5040990;28;20183;-80
2021/01/29 12:58:41;;;;;;;1999.90;999.90;;;9.80;99.90;;;;;;5040128;28;20181;-81
2021/01/29 13:01:13;;;;;;;1999.90;999.90;;;9.80;99.90;;;;;;5041321;28;20211;-81
2021/01/29 13:03:55;;;;;;;1999.90;999.90;;;9.80;99.90;;;;;;5059156;28;20168;-81
2021/01/29 13:06:48;;;;;;;1999.90;999.90;;;9.90;99.90;;;;;;5041947;28;20566;-81
2021/01/29 13:09:39;;;;;;;1999.90;999.90;;;10.00;99.90;;;;;;5059168;28;20505;-81
2021/01/29 13:12:43;;;;;;;1999.90;999.90;;;10.10;99.90;;;;;;5040263;28;20172;-80
2021/01/29 13:15:09;;;;;;;1999.90;999.90;;;10.00;99.90;;;;;;5058753;28;20232;-81
2021/01/29 13:17:46;;;;;;;1999.90;999.90;;;10.00;99.90;;;;;;5059007;28;20204;-81
2021/01/29 13:20:24;;;;;;;1999.90;999.90;;;10.10;99.90;;;;;;5059383;28;20167;-81
2021/01/29 13:22:55;;;;;;;1999.90;999.90;;;10.10;99.90;;;;;;5058663;28;20647;-80
2021/01/29 13:25:28;;;;;;;1999.90;999.90;;;10.20;99.90;;;;;;5058677;28;20141;-80
2021/01/29 13:28:00;;;;;;;1999.90;999.90;;;10.20;99.90;;;;;;5041271;28;20199;-80
2021/01/29 13:30:40;;;;;;;1999.90;999.90;;;10.20;99.90;;;;;;5040912;28;20149;-81